Time;durP1;ratioP1;P1;durP2;ratioP2;P2;SDS_P1;SDS_P2;PMS_P1;PMS_P2;Temp;Humidity;BMP_temperature;BMP_pressure;BME280_temperature;BME280_humidity;BME280_pressure;Samples;Min_cycle;Max_cycle;Signal;HPM_P1;HPM_P2
2021/06/15 00:01:04;;;;;;;15.88;7.37;;;;;;;15.37;59.28;100836.11;1758685;81;20991;-71
2021/06/15 00:03:30;;;;;;;16.62;7.80;;;;;;;15.35;59.27;100842.17;1758985;81;21556;-71
2021/06/15 00:05:56;;;;;;;16.90;8.25;;;;;;;15.34;59.27;100849.90;1758854;81;21487;-71
2021/06/15 00:08:23;;;;;;;13.15;7.62;;;;;;;15.31;59.28;100850.28;1758821;81;21066;-70
2021/06/15 00:10:49;;;;;;;14.25;8.98;;;;;;;15.30;59.30;100847.80;1758883;81;21077;-71
2021/06/15 00:13:15;;;;;;;11.85;7.30;;;;;;;15.28;59.32;100849.33;1759002;81;21046;-71
2021/06/15 00:15:44;;;;;;;13.48;7.60;;;;;;;15.25;59.34;100847.02;1758873;81;21154;-71
2021/06/15 00:18:09;;;;;;;16.32;8.23;;;;;;;15.23;59.36;100839.67;1784080;80;21000;-71
2021/06/15 00:20:35;;;;;;;17.80;9.30;;;;;;;15.21;59.39;100840.86;1790139;79;20979;-71
2021/06/15 00:23:01;;;;;;;12.93;7.42;;;;;;;15.18;59.33;100844.77;1789903;80;20991;-71
2021/06/15 00:25:27;;;;;;;15.83;8.68;;;;;;;15.14;59.42;100846.16;1759267;80;20999;-71
2021/06/15 00:27:53;;;;;;;15.38;7.62;;;;;;;15.10;59.46;100836.81;1764750;80;20995;-71
2021/06/15 00:30:20;;;;;;;17.15;8.65;;;;;;;15.06;59.53;100839.55;1767514;81;21026;-71
2021/06/15 00:32:48;;;;;;;15.45;8.00;;;;;;;15.04;59.56;100832.70;1767505;81;21113;-71
2021/06/15 00:35:14;;;;;;;17.87;7.50;;;;;;;15.01;59.61;100835.27;1730780;83;21042;-71
2021/06/15 00:37:40;;;;;;;14.98;7.65;;;;;;;14.99;59.64;100845.34;1730906;82;21015;-71
2021/06/15 00:40:07;;;;;;;13.80;7.78;;;;;;;14.96;59.66;100843.87;1730668;82;21042;-71
2021/06/15 00:42:33;;;;;;;16.45;8.58;;;;;;;14.94;59.71;100839.22;1730714;82;21034;-71
2021/06/15 00:44:59;;;;;;;13.70;7.72;;;;;;;14.92;59.74;100843.08;1730601;83;20999;-71
2021/06/15 00:47:25;;;;;;;14.50;7.58;;;;;;;14.89;59.79;100837.59;1730657;83;21022;-71
2021/06/15 00:49:52;;;;;;;13.30;7.67;;;;;;;14.87;59.81;100835.61;1730774;81;21003;-71
2021/06/15 00:52:18;;;;;;;13.70;7.25;;;;;;;14.85;59.86;100832.77;1731331;81;21728;-71
2021/06/15 00:54:44;;;;;;;14.90;8.00;;;;;;;14.86;59.87;100839.81;1730717;83;20987;-71
2021/06/15 00:57:18;;;;;;;21.48;10.85;;;;;;;14.84;59.83;100835.16;1730702;83;21022;-71
2021/06/15 00:59:44;;;;;;;18.55;11.65;;;;;;;14.72;60.07;100829.41;1730890;83;21455;-71
2021/06/15 01:02:10;;;;;;;14.55;7.97;;;;;;;14.81;59.93;100839.56;1730754;82;21561;-71
2021/06/15 01:04:37;;;;;;;16.57;8.85;;;;;;;14.81;59.93;100839.56;1730813;83;21795;-71
2021/06/15 01:07:51;;;;;;;16.67;8.13;;;;;;;14.75;59.97;100827.69;1731262;81;20987;-71
2021/06/15 01:10:47;;;;;;;17.67;8.25;;;;;;;14.59;59.81;100805.59;1729304;81;21015;-71
2021/06/15 01:13:36;;;;;;;13.60;7.58;;;;;;;14.73;60.07;100838.30;1730464;83;21019;-71
2021/06/15 01:16:17;;;;;;;12.50;7.23;;;;;;;14.73;60.07;100838.30;1731890;81;21007;-71
2021/06/15 01:18:50;;;;;;;14.65;7.90;;;;;;;14.69;60.08;100838.34;1761442;81;21900;-71
2021/06/15 01:21:16;;;;;;;13.30;7.35;;;;;;;14.67;60.08;100841.73;1740287;81;21094;-71
2021/06/15 01:23:54;;;;;;;13.85;8.08;;;;;;;14.65;60.11;100843.76;1730607;82;21003;-71
2021/06/15 01:26:48;;;;;;;11.50;7.95;;;;;;;14.64;60.17;100836.72;1730575;83;20998;-71
2021/06/15 01:29:22;;;;;;;10.25;7.35;;;;;;;14.61;60.20;100837.09;1729787;83;20991;-71
2021/06/15 01:31:51;;;;;;;13.28;8.18;;;;;;;14.58;60.24;100830.25;1730401;83;21265;-71
2021/06/15 01:34:24;;;;;;;17.48;8.78;;;;;;;14.57;60.28;100833.94;1728040;82;21102;-71
2021/06/15 01:36:58;;;;;;;12.93;7.17;;;;;;;14.56;60.32;100832.80;1729221;83;21054;-71
2021/06/15 01:39:27;;;;;;;15.32;8.48;;;;;;;14.56;60.36;100830.12;1721680;83;21054;-71
2021/06/15 01:42:16;;;;;;;14.47;7.72;;;;;;;14.54;60.39;100833.48;1730953;82;21074;-71
2021/06/15 01:44:43;;;;;;;15.00;7.78;;;;;;;14.53;60.45;100838.55;1730665;82;21178;-71
2021/06/15 01:47:11;;;;;;;17.02;7.80;;;;;;;14.51;60.48;100827.98;1730759;82;21503;-71
2021/06/15 01:49:52;;;;;;;14.10;8.40;;;;;;;14.47;60.50;100822.15;1735269;81;21105;-71
2021/06/15 01:52:20;;;;;;;13.28;7.80;;;;;;;14.35;60.68;100809.39;1730614;82;21026;-71
2021/06/15 01:54:47;;;;;;;17.65;7.28;;;;;;;14.35;60.68;100809.39;1730826;82;21508;-71
2021/06/15 01:57:14;;;;;;;11.43;6.95;;;;;;;14.44;60.60;100829.73;1730937;81;21161;-71
2021/06/15 01:59:44;;;;;;;10.45;6.35;;;;;;;14.42;60.63;100825.91;1730990;81;21027;-71
2021/06/15 02:02:11;;;;;;;15.28;7.10;;;;;;;14.41;60.69;100820.21;1730556;83;21011;-71
2021/06/15 02:04:44;;;;;;;13.25;6.30;;;;;;;14.39;61.00;100814.17;1730693;82;21102;-71
2021/06/15 02:07:13;;;;;;;10.70;6.58;;;;;;;14.39;61.00;100814.17;1730791;82;21038;-71
2021/06/15 02:09:42;;;;;;;15.55;7.22;;;;;;;14.40;60.97;100817.70;1730993;81;21770;-71
2021/06/15 02:12:09;;;;;;;17.13;7.63;;;;;;;14.39;61.05;100811.50;1730859;83;21045;-71
2021/06/15 02:14:35;;;;;;;15.72;7.00;;;;;;;14.39;61.10;100817.40;1730657;83;21070;-71
2021/06/15 02:17:02;;;;;;;12.18;7.25;;;;;;;14.39;61.16;100810.69;1731420;81;21492;-71
2021/06/15 02:19:28;;;;;;;10.98;6.83;;;;;;;14.38;61.19;100810.36;1705655;83;21058;-71
2021/06/15 02:21:59;;;;;;;16.07;8.35;;;;;;;14.35;61.23;100815.59;1730796;83;21668;-71
2021/06/15 02:24:32;;;;;;;15.13;7.25;;;;;;;14.32;61.26;100818.58;1730395;83;21011;-71
2021/06/15 02:26:58;;;;;;;14.87;8.65;;;;;;;14.30;61.30;100822.47;1730545;81;21010;-71
2021/06/15 02:29:24;;;;;;;10.80;7.22;;;;;;;14.25;61.34;100823.02;1735128;82;21062;-71
2021/06/15 02:31:54;;;;;;;13.10;7.80;;;;;;;14.22;61.41;100823.38;1735294;82;21696;-71
2021/06/15 02:34:21;;;;;;;16.02;7.25;;;;;;;14.19;61.47;100829.13;1735281;82;21518;-71
2021/06/15 02:36:47;;;;;;;15.20;8.43;;;;;;;14.12;61.55;100820.14;1734898;82;21010;-71
2021/06/15 02:39:19;;;;;;;14.75;8.78;;;;;;;13.96;61.36;100801.53;1728187;82;21058;-71
2021/06/15 02:41:46;;;;;;;12.37;8.03;;;;;;;13.98;61.72;100819.09;1735037;82;21011;-71
2021/06/15 02:44:18;;;;;;;14.43;8.53;;;;;;;13.93;61.84;100816.65;1735634;81;21042;-71
2021/06/15 02:46:43;;;;;;;17.50;9.20;;;;;;;13.90;61.96;100814.30;1734591;81;21535;-71
2021/06/15 02:49:14;;;;;;;14.23;8.40;;;;;;;13.88;62.04;100823.05;1745091;81;21023;-71
2021/06/15 02:51:48;;;;;;;16.23;7.25;;;;;;;13.85;62.14;100812.69;1752595;81;21019;-71
2021/06/15 02:54:20;;;;;;;13.32;6.53;;;;;;;13.85;62.24;100816.20;1745726;81;21042;-71
2021/06/15 02:56:49;;;;;;;13.38;7.45;;;;;;;13.87;62.36;100825.39;1752986;81;21031;-71
2021/06/15 02:59:15;;;;;;;16.12;8.95;;;;;;;13.89;62.51;100830.09;1752892;81;21092;-71
2021/06/15 03:01:53;;;;;;;17.37;7.35;;;;;;;13.92;62.65;100823.85;1752736;81;21050;-71
2021/06/15 03:04:19;;;;;;;16.37;8.20;;;;;;;14.02;62.85;100822.25;1752579;81;21179;-71
2021/06/15 03:06:46;;;;;;;14.35;8.00;;;;;;;14.02;62.85;100822.25;1752671;81;21039;-71
2021/06/15 03:09:12;;;;;;;17.65;8.93;;;;;;;14.09;62.89;100825.03;1753010;81;21444;-71
2021/06/15 03:11:56;;;;;;;13.22;8.13;;;;;;;14.06;62.98;100827.58;1752542;81;21318;-71
2021/06/15 03:14:22;;;;;;;15.45;9.48;;;;;;;14.07;63.08;100827.91;1760213;81;21557;-71
2021/06/15 03:16:50;;;;;;;17.70;8.78;;;;;;;14.12;63.16;100833.55;1792915;80;20974;-71
2021/06/15 03:19:33;;;;;;;13.15;8.53;;;;;;;14.19;63.22;100839.02;1737159;81;20993;-71
2021/06/15 03:22:14;;;;;;;12.55;8.18;;;;;;;14.27;63.26;100837.60;1793189;80;20966;-72
2021/06/15 03:24:44;;;;;;;17.50;9.38;;;;;;;14.36;63.29;100837.36;1792873;80;21021;-71
2021/06/15 03:29:48;;;;;;;21.15;9.23;;;;;;;14.68;63.34;100839.36;1854922;77;22046;-71
2021/06/15 03:32:16;;;;;;;16.27;8.88;;;;;;;14.84;63.38;100837.84;1759512;81;21477;-71
2021/06/15 03:34:50;;;;;;;21.35;11.90;;;;;;;15.33;63.49;100836.16;1790629;79;21023;-71
2021/06/15 03:37:22;;;;;;;14.78;8.45;;;;;;;16.23;63.35;100832.36;1790736;80;21420;-71
2021/06/15 03:39:49;;;;;;;15.20;7.62;;;;;;;17.06;62.91;100827.37;1790782;80;21003;-71
2021/06/15 03:42:21;;;;;;;20.12;8.35;;;;;;;18.02;62.52;100827.47;1789292;79;21030;-72
2021/06/15 03:44:55;;;;;;;12.45;7.87;;;;;;;19.01;61.88;100829.48;1789667;79;20979;-72
2021/06/15 03:47:22;;;;;;;19.12;8.48;;;;;;;19.67;61.06;100825.08;1789154;80;21791;-72
2021/06/15 03:49:48;;;;;;;13.90;7.53;;;;;;;19.78;60.16;100828.44;1786888;80;20960;-72
2021/06/15 03:52:14;;;;;;;12.43;6.80;;;;;;;20.08;59.74;100830.81;1757461;81;21023;-72
2021/06/15 03:54:42;;;;;;;16.15;7.92;;;;;;;20.17;59.06;100829.47;1757796;81;21283;-72
2021/06/15 03:57:08;;;;;;;19.10;7.92;;;;;;;20.34;58.42;100827.05;1738969;81;21011;-72
2021/06/15 03:59:34;;;;;;;19.67;9.40;;;;;;;20.16;57.85;100831.88;1728414;81;21098;-72
2021/06/15 04:02:05;;;;;;;17.67;8.73;;;;;;;20.05;57.64;100828.56;1757899;81;21540;-72
2021/06/15 04:04:31;;;;;;;30.88;13.50;;;;;;;20.36;57.24;100832.57;1758123;81;21074;-72
2021/06/15 04:06:57;;;;;;;23.77;10.93;;;;;;;20.82;56.75;100819.88;1758349;81;21117;-72
2021/06/15 04:09:26;;;;;;;11.10;6.28;;;;;;;21.05;55.98;100828.66;1757912;81;21000;-72
2021/06/15 04:11:57;;;;;;;12.50;6.58;;;;;;;21.39;55.47;100830.73;1758125;81;26843;-72
2021/06/15 04:14:23;;;;;;;12.33;7.35;;;;;;;21.42;54.73;100821.33;1757940;81;20964;-72
2021/06/15 04:16:49;;;;;;;14.87;8.35;;;;;;;21.22;54.13;100828.36;1757856;80;21031;-72
2021/06/15 04:19:25;;;;;;;9.25;5.97;;;;;;;21.22;53.75;100825.64;1758037;81;21451;-72
2021/06/15 04:21:53;;;;;;;11.50;5.87;;;;;;;20.93;53.33;100821.01;1739133;81;21015;-72
2021/06/15 04:24:23;;;;;;;12.35;6.67;;;;;;;20.33;53.08;100824.06;1758041;81;21081;-72
2021/06/15 04:26:50;;;;;;;10.88;6.70;;;;;;;20.02;53.04;100825.46;1757269;81;21038;-72
2021/06/15 04:29:16;;;;;;;12.33;6.50;;;;;;;19.86;53.00;100826.30;1738568;81;21543;-72
2021/06/15 04:31:43;;;;;;;10.68;6.37;;;;;;;19.71;52.97;100823.08;1758010;81;21452;-72
2021/06/15 04:34:10;;;;;;;15.25;7.12;;;;;;;19.67;53.02;100828.61;1759279;80;21545;-72
2021/06/15 04:36:36;;;;;;;16.07;7.17;;;;;;;19.73;53.10;100821.52;1759465;81;21124;-72
2021/06/15 04:39:09;;;;;;;14.98;7.28;;;;;;;19.82;53.09;100822.89;1740108;81;20975;-72
2021/06/15 04:41:42;;;;;;;9.55;5.78;;;;;;;19.95;53.01;100824.13;1758856;81;20956;-72
2021/06/15 04:44:12;;;;;;;10.93;6.42;;;;;;;20.15;53.03;100818.05;1758791;81;21006;-72
2021/06/15 04:46:45;;;;;;;14.63;7.33;;;;;;;20.43;52.95;100813.53;1758798;81;21038;-72
2021/06/15 04:49:16;;;;;;;14.87;8.13;;;;;;;20.67;52.75;100807.75;1758790;81;21123;-72
2021/06/15 04:51:43;;;;;;;17.52;7.40;;;;;;;20.76;52.55;100815.34;1758385;80;20999;-72
2021/06/15 04:54:11;;;;;;;11.10;7.35;;;;;;;20.83;52.44;100810.67;1759001;81;21069;-72
2021/06/15 04:56:37;;;;;;;16.97;7.47;;;;;;;20.84;52.31;100820.99;1739557;81;20983;-72
2021/06/15 04:59:03;;;;;;;14.13;8.03;;;;;;;20.89;52.19;100817.09;1758781;81;20940;-72
2021/06/15 05:01:29;;;;;;;20.80;8.35;;;;;;;20.96;52.06;100817.83;1758995;81;21575;-72
2021/06/15 05:03:55;;;;;;;11.78;6.83;;;;;;;21.11;51.80;100816.92;1758843;81;21053;-72
2021/06/15 05:06:21;;;;;;;13.60;6.15;;;;;;;21.32;51.69;100816.42;1758309;81;21038;-72
2021/06/15 05:08:57;;;;;;;17.62;9.20;;;;;;;21.41;51.51;100813.70;1758815;81;21530;-72
2021/06/15 05:11:23;;;;;;;11.75;6.45;;;;;;;21.69;51.39;100824.46;1759016;81;21494;-72
2021/06/15 05:13:49;;;;;;;12.63;6.85;;;;;;;21.87;51.08;100829.83;1758312;81;21149;-72
2021/06/15 05:16:15;;;;;;;9.68;6.03;;;;;;;21.97;50.99;100831.47;1757496;81;20964;-72
2021/06/15 05:18:41;;;;;;;9.68;5.72;;;;;;;22.13;50.84;100827.24;1757229;81;20995;-72
2021/06/15 05:21:14;;;;;;;11.20;6.33;;;;;;;22.10;50.60;100828.52;1757220;80;21007;-72
2021/06/15 05:23:46;;;;;;;11.33;7.12;;;;;;;21.89;50.38;100826.33;1756606;81;21023;-72
2021/06/15 05:26:13;;;;;;;12.75;7.65;;;;;;;22.05;50.25;100832.48;1738905;81;21097;-72
2021/06/15 05:28:39;;;;;;;11.05;6.17;;;;;;;22.17;50.03;100831.95;1756887;81;21519;-72
2021/06/15 05:31:05;;;;;;;11.03;5.90;;;;;;;22.31;49.82;100831.19;1757107;81;20981;-72
2021/06/15 05:33:31;;;;;;;18.17;6.90;;;;;;;22.54;49.61;100831.20;1757030;81;21039;-72
2021/06/15 05:35:59;;;;;;;13.13;5.85;;;;;;;22.77;49.36;100820.83;1757023;81;21043;-72
2021/06/15 05:38:25;;;;;;;16.55;9.93;;;;;;;23.08;49.13;100824.47;1752480;81;21519;-73
2021/06/15 05:40:52;;;;;;;9.60;6.60;;;;;;;23.24;48.77;100827.81;1715530;83;21451;-73
2021/06/15 05:43:18;;;;;;;12.75;8.13;;;;;;;23.50;48.50;100822.89;1748547;81;21046;-73
2021/06/15 05:45:44;;;;;;;12.80;7.33;;;;;;;23.75;48.14;100830.95;1757018;81;21046;-73
2021/06/15 05:48:11;;;;;;;12.30;6.53;;;;;;;23.80;48.03;100828.86;1757500;81;21057;-73
2021/06/15 05:50:37;;;;;;;10.43;6.00;;;;;;;23.77;47.79;100821.19;1758164;81;21576;-73
2021/06/15 05:53:03;;;;;;;13.85;8.65;;;;;;;23.71;47.45;100826.27;1758223;81;20959;-73
2021/06/15 05:55:29;;;;;;;13.85;7.03;;;;;;;23.75;47.36;100827.43;1758741;81;20999;-73
2021/06/15 05:57:55;;;;;;;14.60;7.58;;;;;;;23.85;47.08;100827.04;1758556;81;21030;-73
2021/06/15 06:00:21;;;;;;;13.00;6.50;;;;;;;23.86;47.00;100836.04;1758805;81;20990;-73
2021/06/15 06:02:47;;;;;;;17.82;6.95;;;;;;;24.03;46.89;100832.78;1758682;81;23234;-73
2021/06/15 06:10:28;;;;;;;9.58;5.20;;;;;;;24.82;46.30;100826.63;1757981;81;21046;-72
2021/06/15 06:12:54;;;;;;;7.30;4.95;;;;;;;24.93;46.08;100825.72;1758491;81;21093;-72
2021/06/15 06:15:20;;;;;;;9.63;4.67;;;;;;;25.04;45.87;100830.23;1758710;81;21917;-72
2021/06/15 06:17:46;;;;;;;6.42;3.83;;;;;;;25.10;45.68;100829.20;1757564;81;21011;-72
2021/06/15 06:20:14;;;;;;;9.18;4.70;;;;;;;25.33;45.42;100826.17;1758392;81;20983;-72
2021/06/15 06:22:40;;;;;;;11.12;5.37;;;;;;;25.44;45.08;100831.77;1758590;81;21003;-72
2021/06/15 06:25:09;;;;;;;9.53;4.78;;;;;;;25.58;44.88;100827.58;1757158;81;20945;-72
2021/06/15 06:27:36;;;;;;;11.45;5.28;;;;;;;25.79;44.62;100827.48;1757020;81;22823;-72
2021/06/15 06:30:04;;;;;;;7.03;4.17;;;;;;;25.94;44.30;100828.70;1757664;80;20981;-72
2021/06/15 06:32:30;;;;;;;9.13;4.67;;;;;;;25.95;43.96;100828.46;1766712;81;20971;-72
2021/06/15 06:34:56;;;;;;;7.90;4.20;;;;;;;26.07;43.75;100834.55;1766364;80;21034;-72
2021/06/15 06:37:22;;;;;;;10.25;4.60;;;;;;;26.19;43.47;100829.77;1765911;81;21045;-72
2021/06/15 06:39:48;;;;;;;9.93;4.83;;;;;;;26.16;43.07;100828.91;1766491;81;21938;-72
2021/06/15 06:42:14;;;;;;;6.60;4.05;;;;;;;26.08;43.01;100822.55;1766794;79;20994;-72
2021/06/15 06:44:40;;;;;;;9.30;4.92;;;;;;;26.12;42.82;100831.88;1766359;81;21033;-72
2021/06/15 06:47:06;;;;;;;10.95;5.80;;;;;;;26.21;42.56;100837.73;1766695;81;21468;-72
2021/06/15 06:49:32;;;;;;;14.40;6.00;;;;;;;26.35;42.51;100829.89;1734482;82;21456;-72
2021/06/15 06:51:58;;;;;;;10.75;5.50;;;;;;;26.53;42.37;100826.73;1766870;81;22537;-72
2021/06/15 06:54:24;;;;;;;6.53;4.78;;;;;;;26.60;42.16;100830.05;1766235;81;20891;-72
2021/06/15 06:56:51;;;;;;;7.90;4.67;;;;;;;26.72;42.11;100827.37;1766761;81;21434;-72
2021/06/15 06:59:17;;;;;;;7.28;4.17;;;;;;;26.79;41.89;100827.13;1767167;81;21034;-72
2021/06/15 07:01:44;;;;;;;10.23;4.33;;;;;;;26.78;41.86;100832.31;1767302;81;20982;-72
2021/06/15 07:04:10;;;;;;;12.20;4.97;;;;;;;26.82;41.70;100834.84;1767207;81;21984;-72
2021/06/15 07:06:36;;;;;;;6.25;4.80;;;;;;;26.79;41.56;100836.70;1767113;81;20994;-72
2021/06/15 07:09:02;;;;;;;8.05;4.75;;;;;;;26.65;41.56;100828.70;1767223;81;21034;-72
2021/06/15 07:11:28;;;;;;;7.60;4.37;;;;;;;26.65;41.43;100827.33;1767094;81;21054;-72
2021/06/15 07:13:54;;;;;;;9.78;4.50;;;;;;;26.70;41.30;100836.41;1767280;80;20982;-72
2021/06/15 07:16:20;;;;;;;7.25;4.30;;;;;;;26.63;41.21;100834.99;1767145;81;22499;-72
2021/06/15 07:18:46;;;;;;;9.15;4.87;;;;;;;26.53;41.29;100839.04;1767152;79;20979;-72
2021/06/15 07:21:12;;;;;;;7.87;4.70;;;;;;;26.60;41.34;100836.89;1767146;81;21050;-72
2021/06/15 07:23:39;;;;;;;8.38;3.85;;;;;;;26.83;41.33;100835.12;1766990;81;20982;-72
2021/06/15 07:26:05;;;;;;;10.25;4.70;;;;;;;26.90;41.29;100836.25;1767497;80;20978;-72
2021/06/15 07:28:32;;;;;;;6.80;4.28;;;;;;;26.89;41.22;100834.05;1767018;81;21507;-72
2021/06/15 07:30:58;;;;;;;9.38;4.90;;;;;;;26.72;40.98;100830.65;1759032;80;20880;-72
2021/06/15 07:33:24;;;;;;;12.15;4.80;;;;;;;26.59;41.02;100829.77;1758254;81;21018;-72
2021/06/15 07:35:50;;;;;;;12.47;4.60;;;;;;;26.57;40.99;100829.19;1758459;81;21432;-72
2021/06/15 07:38:16;;;;;;;7.65;5.12;;;;;;;26.58;40.94;100830.31;1758616;81;21015;-72
2021/06/15 07:40:42;;;;;;;9.13;5.45;;;;;;;26.76;40.94;100830.41;1757989;81;21895;-72
2021/06/15 07:43:08;;;;;;;11.43;4.30;;;;;;;26.88;40.78;100829.69;1758415;81;20987;-72
2021/06/15 07:45:36;;;;;;;10.90;4.42;;;;;;;26.90;40.72;100834.34;1758325;81;20999;-72
2021/06/15 07:48:03;;;;;;;10.25;4.62;;;;;;;27.15;40.78;100836.35;1758597;81;21088;-72
2021/06/15 07:50:29;;;;;;;8.95;4.70;;;;;;;27.34;40.62;100829.84;1758376;81;21070;-72
2021/06/15 07:52:55;;;;;;;8.75;5.03;;;;;;;27.39;40.58;100822.45;1758528;81;21495;-72
2021/06/15 07:55:21;;;;;;;7.42;4.10;;;;;;;27.50;40.55;100824.70;1758410;81;21443;-72
2021/06/15 07:57:47;;;;;;;8.80;3.83;;;;;;;27.48;40.41;100824.16;1758384;81;21414;-72
2021/06/15 08:00:16;;;;;;;8.10;4.62;;;;;;;27.48;40.20;100823.58;1758599;81;21054;-72
2021/06/15 08:02:44;;;;;;;10.20;4.60;;;;;;;27.41;40.05;100822.19;1758397;81;21006;-71
2021/06/15 08:05:11;;;;;;;9.30;4.28;;;;;;;27.44;39.91;100818.91;1758637;81;21941;-72
2021/06/15 08:07:37;;;;;;;16.23;4.03;;;;;;;27.41;39.76;100823.56;1758413;81;21011;-72
2021/06/15 08:10:04;;;;;;;7.30;5.20;;;;;;;27.02;39.30;100826.70;1758593;81;21014;-72
2021/06/15 08:12:30;;;;;;;8.10;4.62;;;;;;;26.86;39.22;100826.38;1757692;81;20996;-72
2021/06/15 08:14:56;;;;;;;6.40;3.60;;;;;;;26.98;39.20;100821.52;1758475;81;21444;-72
2021/06/15 08:17:22;;;;;;;7.00;4.10;;;;;;;27.11;39.14;100819.64;1758871;80;22471;-72
2021/06/15 08:19:48;;;;;;;8.80;4.12;;;;;;;27.07;38.92;100818.52;1756854;81;21039;-72
2021/06/15 08:22:14;;;;;;;10.13;4.12;;;;;;;26.87;38.79;100821.73;1757046;81;21026;-72
2021/06/15 08:24:40;;;;;;;10.90;4.20;;;;;;;26.91;38.89;100818.20;1757010;81;20983;-72
2021/06/15 08:27:06;;;;;;;8.73;4.33;;;;;;;27.18;38.90;100815.27;1758611;81;21018;-72
2021/06/15 08:29:32;;;;;;;7.35;3.60;;;;;;;27.35;38.87;100823.25;1758494;81;21921;-72
2021/06/15 08:31:58;;;;;;;11.43;3.40;;;;;;;27.46;38.74;100824.95;1756555;80;21542;-72
2021/06/15 08:34:24;;;;;;;8.70;4.33;;;;;;;27.52;38.57;100816.47;1741154;81;21007;-72
2021/06/15 08:36:50;;;;;;;12.03;5.22;;;;;;;27.51;38.53;100823.61;1757420;81;21053;-72
2021/06/15 08:39:17;;;;;;;6.70;3.77;;;;;;;27.38;38.48;100819.97;1741242;81;21030;-72
2021/06/15 08:41:43;;;;;;;5.62;3.33;;;;;;;27.20;38.50;100819.38;1757649;81;22601;-72
2021/06/15 08:44:09;;;;;;;5.33;3.33;;;;;;;27.39;38.46;100817.52;1757546;81;21014;-72
2021/06/15 08:46:36;;;;;;;5.70;3.40;;;;;;;27.53;38.30;100820.04;1757663;80;21006;-72
2021/06/15 08:49:03;;;;;;;5.15;3.12;;;;;;;27.73;37.97;100811.83;1757596;81;20995;-72
2021/06/15 08:51:29;;;;;;;10.03;3.42;;;;;;;27.84;37.65;100820.89;1741104;81;21368;-72
2021/06/15 08:54:03;;;;;;;19.20;3.65;;;;;;;27.96;37.53;100827.77;1757129;81;21829;-72
2021/06/15 08:56:28;;;;;;;7.60;3.87;;;;;;;27.96;37.39;100823.65;1755926;81;21021;-72
2021/06/15 08:59:22;;;;;;;6.72;3.67;;;;;;;28.10;37.22;100828.89;1757387;81;20999;-72
2021/06/15 09:01:53;;;;;;;7.70;3.77;;;;;;;28.08;37.13;100825.58;1757333;81;21046;-72
2021/06/15 09:04:20;;;;;;;7.28;4.25;;;;;;;28.12;37.09;100828.05;1757671;81;21014;-72
2021/06/15 09:06:46;;;;;;;5.25;3.12;;;;;;;28.09;37.04;100831.34;1757578;81;22459;-71
2021/06/15 09:09:12;;;;;;;8.28;4.28;;;;;;;27.90;36.95;100822.55;1766166;80;21029;-72
2021/06/15 09:11:58;;;;;;;9.20;3.75;;;;;;;27.80;37.00;100826.09;1735547;81;21037;-72
2021/06/15 09:14:53;;;;;;;10.60;4.80;;;;;;;27.71;37.00;100826.38;1730591;81;21041;-71
2021/06/15 09:17:31;;;;;;;5.08;3.47;;;;;;;27.61;36.98;100813.48;1740461;81;21483;-72
2021/06/15 09:20:14;;;;;;;8.40;3.42;;;;;;;27.55;37.13;100829.63;1701407;84;22610;-71
2021/06/15 09:22:41;;;;;;;8.20;3.77;;;;;;;27.63;37.33;100831.02;1728998;82;21049;-72
2021/06/15 09:25:10;;;;;;;10.23;4.72;;;;;;;27.79;37.32;100832.70;1730718;82;20923;-72
2021/06/15 09:27:38;;;;;;;8.05;4.15;;;;;;;27.90;37.11;100825.30;1702506;82;27342;-72
2021/06/15 09:30:08;;;;;;;7.72;3.50;;;;;;;27.81;37.11;100829.12;1731337;82;21029;-72
2021/06/15 09:32:39;;;;;;;;;;;;;;;27.81;37.10;100822.27;1732983;82;21992;-72
2021/06/15 09:35:10;;;;;;;10.13;4.62;;;;;;;27.95;37.08;100816.51;1731425;82;20619;-72
2021/06/15 09:37:51;;;;;;;5.55;3.52;;;;;;;28.03;36.94;100823.37;1730568;82;21439;-72
2021/06/15 09:40:30;;;;;;;9.35;5.92;;;;;;;28.05;36.87;100821.98;1731287;82;20982;-72
2021/06/15 09:43:06;;;;;;;7.60;4.17;;;;;;;27.94;36.84;100817.59;1737135;81;21027;-72
2021/06/15 09:45:37;;;;;;;5.25;3.40;;;;;;;27.90;36.96;100811.05;1756627;81;22492;-71
2021/06/15 09:48:28;;;;;;;11.63;3.75;;;;;;;27.82;36.86;100810.21;1755381;81;21018;-71
2021/06/15 09:51:00;;;;;;;14.53;3.85;;;;;;;27.76;36.85;100814.85;1731550;82;21007;-72
2021/06/15 09:53:35;;;;;;;7.97;3.85;;;;;;;27.76;36.94;100815.42;1738994;82;21065;-71
2021/06/15 09:56:04;;;;;;;10.88;4.22;;;;;;;27.61;36.88;100809.92;1739003;82;21349;-71
2021/06/15 09:58:54;;;;;;;7.57;3.97;;;;;;;27.75;37.02;100812.40;1738460;81;21841;-71
2021/06/15 10:01:39;;;;;;;10.00;5.22;;;;;;;27.79;37.00;100805.28;1741798;81;21082;-72
2021/06/15 10:04:14;;;;;;;14.87;3.90;;;;;;;27.92;36.88;100806.09;1746583;81;21069;-71
2021/06/15 10:06:46;;;;;;;6.42;3.67;;;;;;;27.92;37.05;100808.84;1733419;81;21034;-71
2021/06/15 10:09:12;;;;;;;5.85;4.25;;;;;;;28.07;36.97;100802.56;1732663;82;21082;-72
2021/06/15 10:11:39;;;;;;;7.92;4.05;;;;;;;28.37;36.86;100803.05;1715787;82;21921;-71
2021/06/15 10:14:05;;;;;;;7.10;3.30;;;;;;;28.42;36.61;100792.07;1755257;81;21011;-71
2021/06/15 10:16:32;;;;;;;6.28;3.42;;;;;;;28.54;36.42;100804.92;1751082;80;21869;-71
2021/06/15 10:18:59;;;;;;;8.28;3.65;;;;;;;28.55;36.22;100803.28;1753126;81;20982;-71
2021/06/15 10:21:26;;;;;;;6.95;3.95;;;;;;;28.69;36.17;100798.05;1749082;80;21007;-72
2021/06/15 10:23:52;;;;;;;7.55;3.98;;;;;;;28.73;36.09;100797.77;1755728;81;21899;-71
2021/06/15 10:26:18;;;;;;;6.40;3.95;;;;;;;28.80;35.87;100798.29;1756109;81;21504;-73
2021/06/15 10:28:44;;;;;;;10.72;4.33;;;;;;;28.73;35.44;100799.97;1754586;80;20994;-68
2021/06/15 10:31:10;;;;;;;9.30;3.20;;;;;;;28.80;35.53;100802.41;1735546;81;21002;-67
2021/06/15 10:33:45;;;;;;;6.67;3.75;;;;;;;28.90;35.65;100803.73;1755886;80;21014;-68
2021/06/15 10:36:11;;;;;;;8.60;3.65;;;;;;;28.93;35.55;100794.93;1754071;81;21592;-68
2021/06/15 10:38:43;;;;;;;4.67;3.50;;;;;;;28.76;35.02;100795.83;1722445;83;20989;-68
2021/06/15 10:41:24;;;;;;;7.58;3.70;;;;;;;28.41;34.94;100799.48;1748292;80;21057;-68
2021/06/15 10:43:56;;;;;;;4.45;3.72;;;;;;;28.36;35.07;100800.84;1720620;83;21044;-68
2021/06/15 10:46:26;;;;;;;8.05;4.03;;;;;;;28.25;35.14;100798.67;1748754;80;21612;-68
2021/06/15 10:49:04;;;;;;;5.28;3.92;;;;;;;28.14;35.08;100794.33;1756545;81;21779;-68
2021/06/15 10:51:41;;;;;;;8.03;3.75;;;;;;;28.13;35.31;100794.05;1756320;81;28365;-68
2021/06/15 10:54:32;;;;;;;12.20;3.83;;;;;;;28.34;35.48;100792.63;1752752;81;20911;-68
2021/06/15 10:57:18;;;;;;;8.48;3.87;;;;;;;28.44;35.38;100788.48;1755511;81;20991;-68
2021/06/15 11:00:12;;;;;;;8.15;3.40;;;;;;;28.46;35.47;100783.56;1754265;80;20998;-68
2021/06/15 11:02:39;;;;;;;5.70;3.33;;;;;;;28.70;35.52;100780.48;1755118;81;21830;-68
2021/06/15 11:05:45;;;;;;;8.63;3.77;;;;;;;28.85;35.59;100774.94;1756785;81;20935;-68
2021/06/15 11:08:19;;;;;;;5.75;3.00;;;;;;;28.78;35.68;100780.46;1755362;81;20987;-68
2021/06/15 11:10:49;;;;;;;7.85;3.98;;;;;;;28.82;35.61;100767.23;1743410;80;21047;-68
2021/06/15 11:13:15;;;;;;;6.22;3.83;;;;;;;28.84;35.37;100761.48;1788403;80;21006;-68
2021/06/15 11:16:00;;;;;;;7.00;3.30;;;;;;;29.06;35.30;100760.55;1766298;79;21857;-68
2021/06/15 11:18:26;;;;;;;7.92;3.50;;;;;;;29.14;35.08;100751.14;1753267;80;20987;-69
2021/06/15 11:20:52;;;;;;;7.42;3.98;;;;;;;29.15;35.17;100755.54;1733991;81;21046;-69
2021/06/15 11:23:25;;;;;;;6.10;3.12;;;;;;;29.04;34.87;100756.70;1749810;81;21097;-68
2021/06/15 11:26:02;;;;;;;7.60;3.17;;;;;;;28.89;34.75;100751.86;1734257;81;21058;-68
2021/06/15 11:28:44;;;;;;;9.40;4.00;;;;;;;28.69;34.74;100754.12;1757401;80;21812;-68
2021/06/15 11:31:26;;;;;;;10.00;5.83;;;;;;;28.58;34.88;100757.98;1780814;79;21149;-68
2021/06/15 11:34:07;;;;;;;7.35;3.70;;;;;;;28.62;35.04;100756.32;1753466;81;21001;-68
2021/06/15 11:36:48;;;;;;;6.03;3.45;;;;;;;28.64;35.06;100751.39;1765041;81;21025;-68
2021/06/15 11:39:30;;;;;;;7.47;3.50;;;;;;;28.61;35.02;100742.31;1766177;80;20957;-68